createdAt,value
2018-04-26T00:01:12.299Z,63.95
2018-04-26T00:03:39.809Z,64.05
2018-04-26T00:06:07.306Z,64.07
2018-04-26T00:08:34.831Z,64.09
2018-04-26T00:11:02.321Z,64.08
2018-04-26T00:13:29.843Z,64.21
2018-04-26T00:15:57.360Z,63.96
2018-04-26T00:18:24.863Z,63.92
2018-04-26T00:20:52.386Z,63.59
2018-04-26T00:23:19.879Z,63.31
2018-04-26T00:25:47.389Z,62.51
2018-04-26T00:28:14.881Z,63.09
2018-04-26T00:30:42.403Z,62.60
2018-04-26T00:33:09.898Z,62.73
2018-04-26T00:35:37.422Z,63.33
2018-04-26T00:38:04.916Z,63.29
2018-04-26T00:40:32.433Z,63.68
2018-04-26T00:42:59.957Z,63.75
2018-04-26T00:45:27.473Z,64.09
2018-04-26T00:47:54.985Z,64.11
2018-04-26T00:50:22.505Z,64.00
2018-04-26T00:52:49.993Z,64.31
2018-04-26T00:55:17.524Z,65.05
2018-04-26T00:57:45.028Z,63.97
2018-04-26T01:00:12.575Z,64.00
2018-04-26T01:02:40.074Z,64.33
2018-04-26T01:05:07.581Z,63.66
2018-04-26T01:07:35.078Z,63.57
2018-04-26T01:10:02.597Z,62.91
2018-04-26T01:12:30.090Z,62.90
2018-04-26T01:14:57.581Z,62.92
2018-04-26T01:17:25.094Z,63.04
2018-04-26T01:19:52.585Z,62.48
2018-04-26T01:22:20.096Z,61.68
2018-04-26T01:24:47.586Z,61.09
2018-04-26T01:27:15.122Z,60.29
2018-04-26T01:29:42.618Z,59.71
2018-04-26T01:32:10.137Z,60.08
2018-04-26T01:34:37.637Z,60.23
2018-04-26T01:37:16.913Z,60.75
2018-04-26T01:39:44.410Z,60.96
2018-04-26T01:42:11.926Z,61.72
2018-04-26T01:44:39.426Z,62.71
2018-04-26T01:47:06.936Z,62.04
2018-04-26T01:49:34.425Z,62.09
2018-04-26T01:52:01.964Z,61.99
2018-04-26T01:54:29.462Z,61.04
2018-04-26T01:56:56.978Z,61.22
2018-04-26T01:59:24.479Z,61.10
2018-04-26T02:01:51.993Z,61.05
2018-04-26T02:04:19.489Z,60.88
2018-04-26T02:06:47.006Z,60.11
2018-04-26T02:09:14.506Z,59.81
2018-04-26T02:11:42.036Z,60.24
2018-04-26T02:14:09.542Z,59.77
2018-04-26T02:16:37.049Z,59.98
2018-04-26T02:19:04.566Z,59.48
2018-04-26T02:21:32.063Z,59.88
2018-04-26T02:23:59.582Z,59.43
2018-04-26T02:26:27.082Z,59.12
2018-04-26T02:28:54.603Z,59.29
2018-04-26T02:31:22.097Z,59.07
2018-04-26T02:33:49.615Z,59.33
2018-04-26T02:36:17.105Z,59.14
2018-04-26T02:38:44.617Z,58.98
2018-04-26T02:41:12.109Z,58.72
2018-04-26T02:43:39.641Z,58.38
2018-04-26T02:46:07.138Z,58.36
2018-04-26T02:48:34.659Z,57.37
2018-04-26T02:51:02.155Z,56.70
2018-04-26T02:53:29.677Z,56.03
2018-04-26T02:55:57.175Z,55.07
2018-04-26T02:58:24.690Z,54.50
2018-04-26T03:00:52.235Z,53.24
2018-04-26T03:03:19.754Z,52.84
2018-04-26T03:05:47.254Z,52.77
2018-04-26T03:08:14.775Z,52.87
2018-04-26T03:10:42.266Z,53.04
2018-04-26T03:13:09.759Z,53.33
2018-04-26T03:15:37.290Z,52.89
2018-04-26T03:18:04.795Z,52.91
2018-04-26T03:20:32.322Z,53.09
2018-04-26T03:22:59.812Z,53.48
2018-04-26T03:25:27.324Z,53.52
2018-04-26T03:27:54.817Z,53.43
2018-04-26T03:30:23.317Z,54.00
2018-04-26T03:32:50.811Z,54.70
2018-04-26T03:35:18.334Z,54.41
2018-04-26T03:37:45.825Z,54.08
2018-04-26T03:40:13.349Z,54.53
2018-04-26T03:42:40.843Z,54.81
2018-04-26T03:45:08.366Z,54.79
2018-04-26T03:47:35.869Z,55.09
2018-04-26T03:50:03.443Z,55.54
2018-04-26T03:52:30.965Z,54.82
2018-04-26T03:54:58.484Z,54.86
2018-04-26T03:57:25.978Z,55.13
2018-04-26T04:00:05.420Z,55.42
2018-04-26T04:02:44.841Z,55.54
2018-04-26T04:05:24.198Z,56.03
2018-04-26T04:07:51.693Z,55.33
2018-04-26T04:10:19.190Z,55.15
2018-04-26T04:12:46.710Z,54.14
2018-04-26T04:15:14.207Z,54.74
2018-04-26T04:17:41.743Z,54.98
2018-04-26T04:20:09.238Z,55.92
2018-04-26T04:22:37.622Z,56.24
2018-04-26T04:25:05.114Z,55.83
2018-04-26T04:27:32.629Z,54.71
2018-04-26T04:30:00.216Z,54.83
2018-04-26T04:32:27.734Z,54.99
2018-04-26T04:34:55.234Z,55.34
2018-04-26T04:37:22.754Z,55.41
2018-04-26T04:39:50.249Z,55.76
2018-04-26T04:42:17.756Z,55.68
2018-04-26T04:44:45.262Z,55.99
2018-04-26T04:47:12.785Z,56.76
2018-04-26T04:49:40.284Z,56.30
2018-04-26T04:52:07.863Z,55.22
2018-04-26T04:54:35.353Z,55.45
2018-04-26T04:57:02.875Z,56.03
2018-04-26T04:59:30.378Z,56.17
2018-04-26T05:01:57.883Z,55.59
2018-04-26T05:04:25.405Z,56.26
2018-04-26T05:06:52.893Z,56.37
2018-04-26T05:09:20.409Z,57.49
2018-04-26T05:11:47.933Z,57.84
2018-04-26T05:14:15.448Z,59.03
2018-04-26T05:16:42.941Z,60.43
2018-04-26T05:19:10.459Z,60.99
2018-04-26T05:21:37.950Z,60.59
2018-04-26T05:24:05.469Z,60.82
2018-04-26T05:26:32.961Z,61.69
2018-04-26T05:29:00.465Z,61.29
2018-04-26T05:31:27.958Z,61.03
2018-04-26T05:33:55.664Z,61.02
2018-04-26T05:36:23.174Z,61.25
2018-04-26T05:38:50.684Z,62.56
2018-04-26T05:41:18.193Z,63.49
2018-04-26T05:43:45.709Z,62.48
2018-04-26T05:46:13.217Z,62.28
2018-04-26T05:48:40.773Z,61.08
2018-04-26T05:51:08.380Z,61.95
2018-04-26T05:53:35.916Z,62.75
2018-04-26T05:56:03.555Z,63.97
2018-04-26T05:58:31.088Z,63.66
2018-04-26T06:00:58.626Z,63.35
2018-04-26T06:03:26.161Z,62.24
2018-04-26T06:05:53.773Z,62.51
2018-04-26T06:08:21.449Z,62.13
2018-04-26T06:10:48.994Z,62.63
2018-04-26T06:13:16.517Z,61.36
2018-04-26T06:15:44.053Z,59.84
2018-04-26T06:18:11.597Z,59.45
2018-04-26T06:20:39.135Z,60.37
2018-04-26T06:23:06.637Z,61.06
2018-04-26T06:25:34.169Z,60.60
2018-04-26T06:28:01.681Z,61.66
2018-04-26T06:30:29.438Z,61.73
2018-04-26T06:32:57.132Z,61.87
2018-04-26T06:35:25.011Z,61.75
2018-04-26T06:37:52.940Z,62.19
2018-04-26T06:40:20.539Z,62.75
2018-04-26T06:42:48.322Z,61.60
2018-04-26T06:45:15.982Z,60.96
2018-04-26T06:47:43.909Z,60.14
2018-04-26T06:50:11.582Z,59.16
2018-04-26T06:52:39.374Z,60.11
2018-04-26T06:55:07.082Z,60.32
2018-04-26T06:57:34.754Z,59.14
2018-04-26T07:00:02.305Z,58.39
2018-04-26T07:02:29.822Z,58.34
2018-04-26T07:04:57.324Z,58.12
2018-04-26T07:07:24.850Z,57.68
2018-04-26T07:09:52.382Z,56.99
2018-04-26T07:12:19.916Z,57.17
2018-04-26T07:14:47.413Z,58.31
2018-04-26T07:17:14.945Z,58.64
2018-04-26T07:19:42.464Z,57.86
2018-04-26T07:22:10.078Z,56.93
2018-04-26T07:24:37.568Z,55.19
2018-04-26T07:27:05.090Z,52.59
2018-04-26T07:29:32.603Z,46.50
2018-04-26T07:32:00.124Z,46.08
2018-04-26T07:34:27.621Z,44.91
2018-04-26T07:36:55.149Z,42.68
2018-04-26T07:39:22.650Z,36.01
2018-04-26T07:41:50.175Z,36.24
2018-04-26T07:44:17.695Z,34.46
2018-04-26T07:46:45.242Z,30.20
2018-04-26T07:49:12.733Z,36.15
2018-04-26T07:51:40.233Z,33.50
2018-04-26T07:54:07.749Z,35.38
2018-04-26T07:56:35.255Z,38.13
2018-04-26T07:59:02.776Z,40.50
2018-04-26T08:01:30.306Z,40.48
2018-04-26T08:03:57.828Z,40.03
2018-04-26T08:06:25.317Z,38.37
2018-04-26T08:08:52.837Z,40.64
2018-04-26T08:11:20.335Z,38.67
2018-04-26T08:13:47.856Z,39.19
2018-04-26T08:16:15.417Z,37.81
2018-04-26T08:18:42.939Z,41.92
2018-04-26T08:21:10.438Z,42.53
2018-04-26T08:23:38.917Z,42.19
2018-04-26T08:26:06.427Z,39.76
2018-04-26T08:28:33.955Z,39.21
2018-04-26T08:31:01.458Z,40.41
2018-04-26T08:33:29.948Z,41.74
2018-04-26T08:35:57.460Z,41.65
2018-04-26T08:38:24.977Z,36.86
2018-04-26T08:40:52.471Z,38.53
2018-04-26T08:43:20.950Z,39.09
2018-04-26T08:45:48.447Z,39.48
2018-04-26T08:48:15.953Z,38.92
2018-04-26T08:50:43.555Z,38.33
2018-04-26T08:53:11.022Z,38.30
2018-04-26T08:55:38.538Z,36.75
2018-04-26T08:58:06.137Z,36.90
2018-04-26T09:00:33.651Z,33.96
2018-04-26T09:03:01.249Z,33.77
2018-04-26T09:05:28.778Z,32.70
2018-04-26T09:07:56.302Z,30.11
2018-04-26T09:10:23.849Z,31.84
2018-04-26T09:12:51.343Z,34.12
2018-04-26T09:15:18.867Z,36.50
2018-04-26T09:17:46.364Z,34.99
2018-04-26T09:20:13.877Z,35.69
2018-04-26T09:22:41.368Z,36.10
2018-04-26T09:25:08.881Z,37.10
2018-04-26T09:27:36.386Z,38.56
2018-04-26T09:30:03.955Z,37.88
2018-04-26T09:32:31.443Z,38.76
2018-04-26T09:34:58.995Z,38.20
2018-04-26T09:37:26.492Z,37.68
2018-04-26T09:39:54.022Z,37.62
2018-04-26T09:42:21.519Z,37.48
2018-04-26T09:44:49.019Z,37.89
2018-04-26T09:47:16.538Z,37.04
2018-04-26T09:49:44.034Z,37.49
2018-04-26T09:52:11.567Z,38.83
2018-04-26T09:54:39.066Z,38.17
2018-04-26T09:57:06.596Z,38.48
2018-04-26T09:59:34.150Z,38.78
2018-04-26T10:02:02.583Z,38.04
2018-04-26T10:07:24.514Z,38.20
2018-04-26T10:09:52.007Z,38.46
2018-04-26T10:12:19.533Z,38.68
2018-04-26T10:14:47.211Z,39.07
2018-04-26T10:17:14.731Z,39.50
2018-04-26T10:19:42.322Z,39.85
2018-04-26T10:22:09.858Z,39.51
2018-04-26T10:24:37.374Z,39.89
2018-04-26T10:27:05.007Z,41.27
2018-04-26T10:29:32.519Z,40.69
2018-04-26T10:32:00.040Z,40.62
2018-04-26T10:34:27.529Z,40.91
2018-04-26T10:36:55.043Z,41.31
2018-04-26T10:39:22.543Z,40.97
2018-04-26T10:41:50.111Z,41.36
2018-04-26T10:44:17.843Z,41.77
2018-04-26T10:46:45.345Z,42.08
2018-04-26T10:49:12.872Z,42.14
2018-04-26T10:51:40.397Z,42.56
2018-04-26T10:54:08.105Z,42.44
2018-04-26T10:56:35.617Z,39.03
2018-04-26T10:59:03.146Z,36.13
2018-04-26T11:01:30.666Z,35.96
2018-04-26T11:03:58.358Z,36.18
2018-04-26T11:06:25.878Z,35.49
2018-04-26T11:08:53.382Z,36.33
2018-04-26T11:11:20.928Z,36.77
2018-04-26T11:13:48.677Z,36.73
2018-04-26T11:16:16.207Z,39.63
2018-04-26T11:18:43.726Z,39.42
2018-04-26T11:21:11.238Z,39.72
2018-04-26T11:23:38.768Z,40.38
2018-04-26T11:26:06.258Z,41.79
2018-04-26T11:28:33.796Z,42.59
2018-04-26T11:31:01.365Z,43.47
2018-04-26T11:33:28.830Z,42.77
2018-04-26T11:35:56.321Z,42.20
2018-04-26T11:38:23.860Z,40.75
2018-04-26T11:40:51.371Z,40.85
2018-04-26T11:43:18.905Z,40.67
2018-04-26T11:45:46.429Z,39.96
2018-04-26T11:48:13.931Z,39.97
2018-04-26T11:50:41.446Z,40.48
2018-04-26T11:53:08.963Z,40.59
2018-04-26T11:55:36.481Z,40.99
2018-04-26T11:58:03.974Z,39.51
2018-04-26T12:00:31.527Z,38.18
2018-04-26T12:02:58.992Z,36.57
2018-04-26T12:05:26.520Z,34.66
2018-04-26T12:07:54.011Z,34.06
2018-04-26T12:10:21.522Z,33.63
2018-04-26T12:12:49.031Z,33.65
2018-04-26T12:15:16.567Z,32.42
2018-04-26T12:17:44.053Z,32.71
2018-04-26T12:20:11.564Z,31.65
2018-04-26T12:22:39.059Z,33.12
2018-04-26T12:25:06.586Z,33.21
2018-04-26T12:27:34.102Z,33.22
2018-04-26T12:30:01.654Z,32.97
2018-04-26T12:32:29.156Z,33.59
2018-04-26T12:34:56.655Z,34.93
2018-04-26T12:37:24.179Z,32.73
2018-04-26T12:39:51.682Z,31.90
2018-04-26T12:42:19.308Z,31.10
2018-04-26T12:44:46.713Z,31.92
2018-04-26T12:47:14.242Z,31.94
2018-04-26T12:49:42.951Z,32.17
2018-04-26T12:52:10.481Z,31.81
2018-04-26T12:54:37.974Z,32.44
2018-04-26T12:57:05.487Z,32.56
2018-04-26T12:59:32.992Z,32.51
2018-04-26T13:02:00.505Z,32.34
2018-04-26T13:04:28.929Z,32.12
2018-04-26T13:06:56.449Z,32.87
2018-04-26T13:09:23.967Z,32.85
2018-04-26T13:11:51.485Z,32.23
2018-04-26T13:14:18.983Z,33.95
2018-04-26T13:16:46.509Z,33.19
2018-04-26T13:19:14.047Z,33.76
2018-04-26T13:21:41.560Z,33.46
2018-04-26T13:24:09.053Z,32.87
2018-04-26T13:26:36.569Z,33.49
2018-04-26T13:29:04.066Z,32.58
2018-04-26T13:31:31.562Z,33.04
2018-04-26T13:33:59.087Z,32.46
2018-04-26T13:36:26.593Z,31.29
2018-04-26T13:38:54.135Z,31.89
2018-04-26T13:41:21.635Z,32.70
2018-04-26T13:43:49.150Z,31.83
2018-04-26T13:46:16.672Z,32.24
2018-04-26T13:48:44.194Z,30.81
2018-04-26T13:51:11.696Z,30.94
2018-04-26T13:53:39.213Z,31.18
2018-04-26T13:56:06.721Z,31.08
2018-04-26T13:58:34.237Z,30.88
2018-04-26T14:01:02.188Z,31.29
2018-04-26T14:03:29.770Z,31.29
2018-04-26T14:05:57.263Z,31.53
2018-04-26T14:08:25.774Z,31.35
2018-04-26T14:10:53.285Z,31.64
2018-04-26T14:13:20.829Z,31.80
2018-04-26T14:15:48.345Z,31.82
2018-04-26T14:18:15.857Z,32.21
2018-04-26T14:20:43.400Z,32.64
2018-04-26T14:23:10.980Z,31.17
2018-04-26T14:25:38.470Z,31.88
2018-04-26T14:28:05.974Z,31.24
2018-04-26T14:30:33.496Z,31.80
2018-04-26T14:33:01.064Z,31.57
2018-04-26T14:35:28.581Z,31.14
2018-04-26T14:37:56.077Z,31.80
2018-04-26T14:40:23.598Z,31.68
2018-04-26T14:42:51.153Z,31.58
2018-04-26T14:45:18.681Z,31.80
2018-04-26T14:47:46.174Z,30.87
2018-04-26T14:50:13.693Z,31.96
2018-04-26T14:52:41.198Z,31.37
2018-04-26T14:55:08.728Z,31.62
2018-04-26T14:57:36.238Z,31.52
2018-04-26T15:00:03.753Z,31.87
2018-04-26T15:02:31.263Z,31.45
2018-04-26T15:04:58.785Z,31.23
2018-04-26T15:07:26.282Z,30.50
2018-04-26T15:09:53.806Z,30.14
2018-04-26T15:12:21.302Z,30.07
2018-04-26T15:14:48.826Z,31.09
2018-04-26T15:17:16.327Z,31.24
2018-04-26T15:19:43.867Z,31.34
2018-04-26T15:22:11.386Z,31.31
2018-04-26T15:24:38.888Z,31.23
2018-04-26T15:27:06.404Z,30.93
2018-04-26T15:29:33.903Z,31.13
2018-04-26T15:32:01.436Z,31.10
2018-04-26T15:34:29.010Z,31.30
2018-04-26T15:36:56.535Z,30.99
2018-04-26T15:39:24.045Z,31.37
2018-04-26T15:41:51.576Z,31.76
2018-04-26T15:44:19.166Z,31.11
2018-04-26T15:46:46.632Z,31.29
2018-04-26T15:49:14.152Z,31.85
2018-04-26T15:51:41.672Z,30.82
2018-04-26T15:54:20.953Z,32.29
2018-04-26T15:57:00.387Z,31.60
2018-04-26T15:59:39.781Z,31.48
2018-04-26T16:02:25.641Z,31.37
2018-04-26T16:05:10.729Z,31.03
2018-04-26T16:07:55.849Z,31.97
2018-04-26T16:10:40.906Z,32.29
2018-04-26T16:16:42.142Z,32.14
2018-04-26T16:19:33.022Z,32.21
2018-04-26T16:22:18.069Z,31.81
2018-04-26T16:24:57.461Z,32.88
2018-04-26T16:27:42.335Z,32.26
2018-04-26T16:30:21.737Z,31.13
2018-04-26T16:33:05.050Z,31.31
2018-04-26T16:35:45.529Z,31.03
2018-04-26T16:38:24.788Z,31.55
2018-04-26T16:40:52.309Z,32.27
2018-04-26T16:43:19.821Z,32.25
2018-04-26T16:45:47.311Z,31.44
2018-04-26T16:48:14.830Z,31.58
2018-04-26T16:50:42.326Z,31.46
2018-04-26T16:53:09.842Z,30.93
2018-04-26T16:55:37.383Z,31.59
2018-04-26T16:58:04.901Z,31.95
2018-04-26T17:00:32.397Z,32.28
2018-04-26T17:02:59.906Z,31.88
2018-04-26T17:05:27.405Z,32.16
2018-04-26T17:07:54.905Z,31.46
2018-04-26T17:10:22.426Z,31.58
2018-04-26T17:12:49.921Z,31.38
2018-04-26T17:15:17.457Z,31.88
2018-04-26T17:17:44.955Z,32.61
2018-04-26T17:20:12.475Z,32.01
2018-04-26T17:22:40.022Z,31.74
2018-04-26T17:25:07.515Z,32.00
2018-04-26T17:27:35.006Z,32.26
2018-04-26T17:30:02.529Z,32.18
2018-04-26T17:32:30.027Z,32.17
2018-04-26T17:34:57.624Z,32.49
2018-04-26T17:37:25.046Z,32.83
2018-04-26T17:39:52.598Z,32.99
2018-04-26T17:42:20.119Z,32.90
2018-04-26T17:44:47.625Z,33.09
2018-04-26T17:47:15.118Z,33.67
2018-04-26T17:49:42.663Z,34.36
2018-04-26T17:52:10.167Z,33.59
2018-04-26T17:54:37.715Z,34.42
2018-04-26T17:57:05.211Z,34.73
2018-04-26T17:59:32.721Z,34.79
2018-04-26T18:02:00.234Z,34.88
2018-04-26T18:04:27.719Z,34.80
2018-04-26T18:06:55.246Z,35.14
2018-04-26T18:09:22.738Z,35.53
2018-04-26T18:11:50.258Z,35.85
2018-04-26T18:14:17.751Z,36.14
2018-04-26T18:16:45.261Z,36.37
2018-04-26T18:19:12.746Z,36.66
2018-04-26T18:21:40.270Z,36.81
2018-04-26T18:24:07.779Z,37.24
2018-04-26T18:26:35.285Z,37.66
2018-04-26T18:29:02.778Z,37.57
2018-04-26T18:31:30.298Z,37.60
2018-04-26T18:33:57.791Z,37.87
2018-04-26T18:36:25.297Z,37.90
2018-04-26T18:38:52.787Z,37.82
2018-04-26T18:41:20.305Z,37.97
2018-04-26T18:43:47.796Z,38.07
2018-04-26T18:46:15.309Z,37.94
2018-04-26T18:48:42.801Z,37.91
2018-04-26T18:51:10.345Z,38.06
2018-04-26T18:53:37.817Z,38.30
2018-04-26T18:56:05.349Z,38.30
2018-04-26T18:58:32.842Z,38.38
2018-04-26T19:01:00.339Z,37.75
2018-04-26T19:03:27.934Z,37.73
2018-04-26T19:05:55.420Z,38.21
2018-04-26T19:08:22.933Z,37.75
2018-04-26T19:10:50.430Z,38.45
2018-04-26T19:13:17.957Z,38.56
2018-04-26T19:15:45.468Z,39.24
2018-04-26T19:18:12.969Z,39.11
2018-04-26T19:20:40.465Z,39.64
2018-04-26T19:23:07.973Z,39.99
2018-04-26T19:25:35.633Z,40.55
2018-04-26T19:28:03.163Z,41.01
2018-04-26T19:30:30.647Z,41.07
2018-04-26T19:32:58.158Z,41.58
2018-04-26T19:35:25.650Z,41.68
2018-04-26T19:37:53.161Z,41.71
2018-04-26T19:40:20.655Z,42.03
2018-04-26T19:42:48.165Z,42.34
2018-04-26T19:45:15.649Z,42.62
2018-04-26T19:47:43.187Z,43.05
2018-04-26T19:50:10.682Z,43.34
2018-04-26T19:52:38.188Z,43.31
2018-04-26T19:55:05.698Z,43.63
2018-04-26T19:57:33.185Z,43.76
2018-04-26T20:00:00.749Z,43.70
2018-04-26T20:02:28.265Z,43.44
2018-04-26T20:04:55.782Z,43.61
2018-04-26T20:07:23.280Z,43.41
2018-04-26T20:09:50.789Z,43.54
2018-04-26T20:12:18.295Z,43.85
2018-04-26T20:14:46.760Z,44.02
2018-04-26T20:17:14.245Z,44.01
2018-04-26T20:19:41.750Z,43.79
2018-04-26T20:22:09.238Z,44.05
2018-04-26T20:24:36.748Z,44.11
2018-04-26T20:27:04.242Z,43.74
2018-04-26T20:29:31.759Z,45.12
2018-04-26T20:31:59.248Z,43.70
2018-04-26T20:34:27.106Z,44.70
2018-04-26T20:36:54.590Z,43.91
2018-04-26T20:39:22.102Z,45.47
2018-04-26T20:41:55.477Z,44.71
2018-04-26T20:44:34.907Z,44.47
2018-04-26T20:47:02.393Z,45.11
2018-04-26T20:49:29.937Z,44.57
2018-04-26T20:51:57.453Z,44.93
2018-04-26T20:54:24.939Z,45.60
2018-04-26T20:56:52.440Z,45.68
2018-04-26T20:59:19.921Z,48.51
2018-04-26T21:01:47.433Z,50.29
2018-04-26T21:04:14.930Z,50.04
2018-04-26T21:06:42.442Z,48.29
2018-04-26T21:09:09.935Z,50.54
2018-04-26T21:11:37.445Z,48.99
2018-04-26T21:14:04.959Z,50.07
2018-04-26T21:16:32.453Z,50.23
2018-04-26T21:18:59.941Z,50.13
2018-04-26T21:21:27.450Z,50.75
2018-04-26T21:23:54.937Z,49.72
2018-04-26T21:26:22.455Z,49.78
2018-04-26T21:28:49.943Z,50.08
2018-04-26T21:31:17.454Z,49.52
2018-04-26T21:33:44.941Z,49.48
2018-04-26T21:36:12.453Z,50.87
2018-04-26T21:38:39.943Z,49.96
2018-04-26T21:41:07.474Z,50.27
2018-04-26T21:43:34.963Z,50.53
2018-04-26T21:46:02.449Z,50.65
2018-04-26T21:48:29.957Z,50.76
2018-04-26T21:51:03.111Z,50.65
2018-04-26T21:53:36.327Z,51.34
2018-04-26T21:56:09.548Z,51.26
2018-04-26T21:58:42.553Z,50.31
2018-04-26T22:01:15.569Z,51.41
2018-04-26T22:06:54.385Z,53.09
2018-04-26T22:09:21.897Z,53.33
2018-04-26T22:11:49.460Z,52.99
2018-04-26T22:14:16.970Z,53.33
2018-04-26T22:16:44.461Z,54.50
2018-04-26T22:19:11.968Z,55.54
2018-04-26T22:21:39.456Z,55.14
2018-04-26T22:24:06.966Z,55.71
2018-04-26T22:26:34.457Z,56.56
2018-04-26T22:29:01.961Z,57.16
2018-04-26T22:31:29.458Z,56.24
2018-04-26T22:33:56.962Z,56.23
2018-04-26T22:36:24.452Z,56.63
2018-04-26T22:38:51.961Z,56.17
2018-04-26T22:41:19.437Z,56.39
2018-04-26T22:43:46.946Z,55.67
2018-04-26T22:46:14.437Z,55.13
2018-04-26T22:48:41.947Z,54.59
2018-04-26T22:51:09.424Z,54.84
2018-04-26T22:53:36.915Z,54.33
2018-04-26T22:56:05.412Z,54.62
2018-04-26T22:58:32.889Z,54.13
2018-04-26T23:01:00.397Z,55.71
2018-04-26T23:03:27.881Z,58.64
2018-04-26T23:05:55.386Z,57.65
2018-04-26T23:08:22.893Z,57.11
2018-04-26T23:10:50.406Z,57.54
2018-04-26T23:13:17.892Z,57.74
2018-04-26T23:15:45.398Z,56.41
2018-04-26T23:18:12.890Z,56.06
2018-04-26T23:20:40.405Z,56.46
2018-04-26T23:23:07.894Z,58.18
2018-04-26T23:25:35.407Z,56.50
2018-04-26T23:28:02.903Z,56.36
2018-04-26T23:30:30.405Z,56.71
2018-04-26T23:32:57.890Z,57.27
2018-04-26T23:35:25.454Z,58.19
2018-04-26T23:37:52.939Z,59.08
2018-04-26T23:40:20.443Z,59.21
2018-04-26T23:42:47.921Z,59.62
2018-04-26T23:45:15.442Z,60.05
2018-04-26T23:47:42.926Z,60.38
2018-04-26T23:50:10.417Z,62.32
2018-04-26T23:52:37.941Z,62.00
2018-04-26T23:55:05.434Z,62.74
2018-04-26T23:57:32.948Z,62.83
